Weather at Skardon River Airport

Public forecast

Using degrees Celsius for public forecast. Weather courtesy of forecast.io.

Closest aviation weather report (METAR) to Skardon River Airport

Closest report is Horn Island Airport, 78.7 nm (145.7 km) NNE.

2024/07/21 08:00 (retrieved 28 minutes ago)

YHID 210800Z AUTO 15009KT 9999 // SCT040 BKN047 OVC053 26/19 Q1015

Closest aviation forecast (TAF) to Skardon River Airport

Closest forecast is Horn Island Airport, 78.7 nm (145.7 km) NNE.

2024/07/21 06:00 (retrieved 2 hours ago)

TAF YHID 210502Z 2106/2206 12018KT 9999 SCT040 FM210800 14012KT 9999 SCT020 FM220100 11020KT 9999 SCT025